Time;durP1;ratioP1;P1;durP2;ratioP2;P2;SDS_P1;SDS_P2;PMS_P1;PMS_P2;Temp;Humidity;BMP_temperature;BMP_pressure;BME280_temperature;BME280_humidity;BME280_pressure;Samples;Min_cycle;Max_cycle;Signal;HPM_P1;HPM_P2
2023/12/21 00:01:17;;;;;;;11.75;2.85;;;;;;;;;;6230913;22;20053;-92
2023/12/21 00:03:48;;;;;;;11.40;3.15;;;;;;;;;;6216967;22;20011;-92
2023/12/21 00:06:38;;;;;;;15.95;3.20;;;;;;;;;;6216394;22;20016;-93
2023/12/21 00:12:09;;;;;;;12.43;3.03;;;;;;;;;;6239675;22;20029;-91
2023/12/21 00:14:40;;;;;;;11.77;3.17;;;;;;;;;;6238595;22;20050;-92
2023/12/21 00:17:20;;;;;;;8.30;2.92;;;;;;;;;;6213823;22;20512;-92
2023/12/21 00:23:38;;;;;;;;;;;;;;;;;;;;;
2023/12/21 00:26:14;;;;;;;15.45;3.25;;;;;;;;;;6255485;22;20994;-92
2023/12/21 00:28:53;;;;;;;;;;;;;;;;;;;;;
2023/12/21 00:31:33;;;;;;;10.85;3.25;;;;;;;;;;6241053;22;20023;-91
2023/12/21 00:34:24;;;;;;;14.23;4.10;;;;;;;;;;6215152;22;20064;-92
2023/12/21 00:37:06;;;;;;;11.48;3.05;;;;;;;;;;6236642;22;20023;-93
2023/12/21 00:39:38;;;;;;;15.15;2.72;;;;;;;;;;6214431;22;20331;-93
2023/12/21 00:42:17;;;;;;;18.48;3.70;;;;;;;;;;6215044;22;20022;-92
2023/12/21 00:44:59;;;;;;;14.30;3.42;;;;;;;;;;6199020;23;20565;-93
2023/12/21 00:47:43;;;;;;;11.52;3.10;;;;;;;;;;6150965;23;20065;-93
2023/12/21 00:50:42;;;;;;;12.75;3.38;;;;;;;;;;6194359;23;20434;-92
2023/12/21 00:53:18;;;;;;;9.02;3.00;;;;;;;;;;6179881;23;20019;-93
2023/12/21 00:56:16;;;;;;;13.13;3.08;;;;;;;;;;6182253;23;20023;-92
2023/12/21 00:59:05;;;;;;;14.25;3.22;;;;;;;;;;6176508;23;20465;-94
2023/12/21 01:02:19;;;;;;;11.57;3.30;;;;;;;;;;6175827;23;20156;-92
2023/12/21 01:05:20;;;;;;;17.70;3.83;;;;;;;;;;6167283;23;20284;-92
2023/12/21 01:08:11;;;;;;;15.93;3.30;;;;;;;;;;6168784;23;20016;-92
2023/12/21 01:10:42;;;;;;;9.80;2.72;;;;;;;;;;6175126;23;20018;-92
2023/12/21 01:13:32;;;;;;;7.95;2.83;;;;;;;;;;6199020;23;20527;-93
2023/12/21 01:16:22;;;;;;;;;;;;;;;;;;;;;
2023/12/21 01:18:57;;;;;;;10.93;3.20;;;;;;;;;;6201827;23;20035;-92
2023/12/21 01:22:02;;;;;;;;;;;;;;;;;;;;;
2023/12/21 01:24:37;;;;;;;16.80;3.35;;;;;;;;;;6283095;22;20031;-92
2023/12/21 01:27:23;;;;;;;12.77;3.13;;;;;;;;;;6238419;22;20038;-93
2023/12/21 01:30:27;;;;;;;6.53;2.65;;;;;;;;;;6212881;22;20019;-92
2023/12/21 01:33:09;;;;;;;15.68;3.65;;;;;;;;;;6256928;22;20020;-92
2023/12/21 01:35:52;;;;;;;10.30;2.70;;;;;;;;;;6214692;22;20034;-92
2023/12/21 01:38:29;;;;;;;18.80;3.35;;;;;;;;;;6211828;22;20027;-93
2023/12/21 01:41:03;;;;;;;14.15;2.90;;;;;;;;;;6209299;22;20015;-92
2023/12/21 01:44:01;;;;;;;11.23;2.72;;;;;;;;;;6215276;22;20467;-92
2023/12/21 01:46:48;;;;;;;12.15;3.35;;;;;;;;;;6239501;22;20456;-94
2023/12/21 01:49:20;;;;;;;9.90;3.08;;;;;;;;;;6208779;22;20510;-92
2023/12/21 01:52:07;;;;;;;9.30;2.63;;;;;;;;;;6235135;22;20096;-92
2023/12/21 01:55:05;;;;;;;8.65;2.60;;;;;;;;;;6213220;22;20058;-93
2023/12/21 01:57:49;;;;;;;8.65;3.00;;;;;;;;;;6226022;22;20011;-93
2023/12/21 02:00:27;;;;;;;13.13;3.20;;;;;;;;;;6214777;22;20019;-92
2023/12/21 02:03:22;;;;;;;10.38;3.88;;;;;;;;;;6208713;22;20054;-92
2023/12/21 02:06:12;;;;;;;15.88;3.90;;;;;;;;;;6237158;22;20019;-93
2023/12/21 02:09:05;;;;;;;7.90;2.50;;;;;;;;;;6169931;23;20017;-93
2023/12/21 02:11:46;;;;;;;9.38;3.13;;;;;;;;;;6144511;23;20047;-93
2023/12/21 02:14:27;;;;;;;13.38;3.25;;;;;;;;;;6153142;23;20021;-93
2023/12/21 02:20:17;;;;;;;8.68;3.35;;;;;;;;;;6097976;23;20067;-92
2023/12/21 02:22:46;;;;;;;7.65;2.85;;;;;;;;;;6169734;23;20020;-93
2023/12/21 02:25:20;;;;;;;9.80;3.17;;;;;;;;;;6145009;23;20012;-93
2023/12/21 02:28:18;;;;;;;14.30;3.33;;;;;;;;;;6110587;23;20104;-93
2023/12/21 02:31:19;;;;;;;9.77;3.50;;;;;;;;;;6083535;23;20025;-92
2023/12/21 02:37:12;;;;;;;9.75;3.65;;;;;;;;;;6076202;23;20033;-93
2023/12/21 02:43:05;;;;;;;8.98;2.85;;;;;;;;;;6140864;23;20020;-94
2023/12/21 02:45:46;;;;;;;7.78;2.45;;;;;;;;;;6173847;23;20024;-93
2023/12/21 02:48:21;;;;;;;10.52;2.85;;;;;;;;;;6139535;23;20051;-92
2023/12/21 02:54:14;;;;;;;8.63;2.90;;;;;;;;;;6144371;23;20059;-92
2023/12/21 02:57:00;;;;;;;8.38;2.92;;;;;;;;;;6140962;23;20031;-92
2023/12/21 03:00:05;;;;;;;8.70;2.72;;;;;;;;;;6194165;22;20026;-92
2023/12/21 03:03:04;;;;;;;12.43;3.15;;;;;;;;;;6061188;23;20339;-92
2023/12/21 03:05:40;;;;;;;;;;;;;;;;;;;;;
2023/12/21 03:08:46;;;;;;;12.32;2.97;;;;;;;;;;6234424;22;20030;-93
2023/12/21 03:11:29;;;;;;;6.35;2.97;;;;;;;;;;6227702;22;20035;-93
2023/12/21 03:14:09;;;;;;;10.20;3.67;;;;;;;;;;6179138;22;20487;-92
2023/12/21 03:17:10;;;;;;;11.15;3.08;;;;;;;;;;6203338;22;20031;-92
2023/12/21 03:20:01;;;;;;;11.25;3.58;;;;;;;;;;6186492;22;20440;-92
2023/12/21 03:22:56;;;;;;;15.20;3.83;;;;;;;;;;6185944;22;20019;-92
2023/12/21 03:25:31;;;;;;;15.15;3.70;;;;;;;;;;6208519;22;20050;-92
2023/12/21 03:28:44;;;;;;;13.57;3.22;;;;;;;;;;6180751;22;20018;-92
2023/12/21 03:31:09;;;;;;;5.63;2.42;;;;;;;;;;6206341;22;20582;-92
2023/12/21 03:36:49;;;;;;;;;;;;;;;;;;;;;
2023/12/21 03:46:34;;;;;;;7.93;2.60;;;;;;;;;;6277681;22;20481;-93
2023/12/21 03:49:29;;;;;;;7.60;2.45;;;;;;;;;;6116075;23;20193;-92
2023/12/21 03:52:34;;;;;;;;;;;;;;;;;;;;;
2023/12/21 03:55:21;;;;;;;6.63;2.15;;;;;;;;;;6238706;22;20502;-93
2023/12/21 03:58:08;;;;;;;6.97;2.47;;;;;;;;;;6287533;22;20030;-94
2023/12/21 04:01:10;;;;;;;9.95;2.50;;;;;;;;;;6217352;22;20019;-92
2023/12/21 04:04:03;;;;;;;;;;;;;;;;;;;;;
2023/12/21 04:06:58;;;;;;;4.60;2.20;;;;;;;;;;6181461;23;20016;-92
2023/12/21 04:09:30;;;;;;;3.78;1.85;;;;;;;;;;6175691;23;20012;-92
2023/12/21 04:12:21;;;;;;;;;;;;;;;;;;;;;
2023/12/21 04:18:11;;;;;;;7.45;2.13;;;;;;;;;;6177313;23;20627;-92
2023/12/21 04:20:47;;;;;;;6.88;2.40;;;;;;;;;;6175135;23;20449;-93
2023/12/21 04:23:24;;;;;;;7.55;2.55;;;;;;;;;;6147903;23;20012;-92
2023/12/21 04:26:30;;;;;;;3.55;2.20;;;;;;;;;;6195201;23;20022;-91
2023/12/21 04:29:21;;;;;;;7.15;2.65;;;;;;;;;;6199819;23;20065;-92
2023/12/21 04:32:29;;;;;;;8.65;2.55;;;;;;;;;;6180030;23;20297;-93
2023/12/21 04:35:54;;;;;;;3.42;2.35;;;;;;;;;;6186343;22;20011;-92
2023/12/21 04:38:56;;;;;;;9.60;2.80;;;;;;;;;;6108522;23;20243;-92
2023/12/21 04:42:07;;;;;;;;;;;;;;;;;;;;;
2023/12/21 04:44:55;;;;;;;7.65;3.28;;;;;;;;;;6250047;22;20020;-92
2023/12/21 04:47:44;;;;;;;10.13;3.00;;;;;;;;;;6182410;22;20063;-92
2023/12/21 04:50:20;;;;;;;8.32;3.35;;;;;;;;;;6200143;22;20240;-92
2023/12/21 04:52:56;;;;;;;5.40;3.50;;;;;;;;;;6179576;22;20030;-91
2023/12/21 04:55:55;;;;;;;6.43;3.30;;;;;;;;;;6215188;22;20020;-93
2023/12/21 04:58:37;;;;;;;6.20;3.42;;;;;;;;;;6212431;22;20046;-92
2023/12/21 05:01:25;;;;;;;9.23;3.05;;;;;;;;;;6216329;22;20043;-93
2023/12/21 05:07:57;;;;;;;;;;;;;;;;;;;;;
2023/12/21 05:10:34;;;;;;;7.55;3.25;;;;;;;;;;6233211;22;20027;-91
2023/12/21 05:13:21;;;;;;;7.30;3.35;;;;;;;;;;6206316;22;20447;-91
2023/12/21 05:18:47;;;;;;;7.35;3.03;;;;;;;;;;6215373;22;20020;-92
2023/12/21 05:21:25;;;;;;;8.15;2.72;;;;;;;;;;6212396;22;20019;-91
2023/12/21 05:23:59;;;;;;;5.03;3.30;;;;;;;;;;6208856;22;20012;-92
2023/12/21 05:26:52;;;;;;;7.75;2.90;;;;;;;;;;6214114;22;20015;-92
2023/12/21 05:29:40;;;;;;;5.43;2.75;;;;;;;;;;6208477;22;20019;-91
2023/12/21 05:32:29;;;;;;;9.27;3.20;;;;;;;;;;6203497;22;20375;-92
2023/12/21 05:35:15;;;;;;;4.82;2.97;;;;;;;;;;6177383;22;20015;-93
2023/12/21 05:38:11;;;;;;;6.10;2.83;;;;;;;;;;6233257;22;20019;-92
2023/12/21 05:40:43;;;;;;;4.75;2.50;;;;;;;;;;6214933;22;20015;-92
2023/12/21 05:43:35;;;;;;;6.28;2.50;;;;;;;;;;6209653;22;20053;-92
2023/12/21 05:46:23;;;;;;;;;;;;;;;;;;;;;
2023/12/21 05:48:58;;;;;;;7.22;2.80;;;;;;;;;;6257772;22;20129;-92
2023/12/21 05:51:44;;;;;;;5.82;2.30;;;;;;;;;;6233587;22;20357;-92
2023/12/21 06:18:41;;;;;;;6.47;2.08;;;;;;;;;;6122488;22;20030;-94
2023/12/21 06:21:07;;;;;;;6.40;2.08;;;;;;;;;;6202964;22;20011;-94
2023/12/21 06:23:33;;;;;;;7.63;2.22;;;;;;;;;;6203695;22;20081;-95
2023/12/21 06:25:59;;;;;;;8.48;2.20;;;;;;;;;;6200326;22;20019;-95
2023/12/21 06:28:28;;;;;;;6.25;2.35;;;;;;;;;;6205067;22;20015;-94
2023/12/21 06:30:54;;;;;;;8.35;2.15;;;;;;;;;;6199978;22;20749;-96
2023/12/21 06:33:20;;;;;;;7.53;2.42;;;;;;;;;;6203886;22;20018;-94
2023/12/21 06:35:46;;;;;;;7.00;2.30;;;;;;;;;;6204588;22;20015;-95
2023/12/21 06:38:12;;;;;;;7.22;2.28;;;;;;;;;;6204066;22;20097;-95
2023/12/21 07:21:11;;;;;;;6.35;1.73;;;;;;;;;;6101010;23;20070;-87
2023/12/21 07:24:04;;;;;;;7.10;2.15;;;;;;;;;;6067370;23;20070;-86
2023/12/21 07:30:09;;;;;;;4.72;1.58;;;;;;;;;;6019173;23;20060;-87
2023/12/21 07:33:23;;;;;;;;;;;;;;;;;;;;;
2023/12/21 07:39:43;;;;;;;4.65;1.60;;;;;;;;;;5949647;23;20059;-86
2023/12/21 07:43:14;;;;;;;;;;;;;;;;;;;;;
2023/12/21 07:46:25;;;;;;;4.40;1.60;;;;;;;;;;5955806;23;20030;-85
2023/12/21 07:49:44;;;;;;;;;;;;;;;;;;;;;
2023/12/21 07:52:47;;;;;;;;;;;;;;;;;;;;;
2023/12/21 07:59:33;;;;;;;;;;;;;;;;;;;;;
2023/12/21 08:02:28;;;;;;;2.38;0.98;;;;;;;;;;5948414;23;20342;-85
2023/12/21 08:05:48;;;;;;;3.25;1.45;;;;;;;;;;5917323;23;20024;-86
2023/12/21 08:16:03;;;;;;;2.83;1.20;;;;;;;;;;5844295;24;20061;-86
2023/12/21 08:27:00;;;;;;;1.27;1.17;;;;;;;;;;5800519;24;20377;-86
2023/12/21 08:33:28;;;;;;;2.25;1.08;;;;;;;;;;5718264;24;20065;-86
2023/12/21 08:50:21;;;;;;;4.95;1.00;;;;;;;;;;5754992;24;20153;-87
2023/12/21 09:12:38;;;;;;;2.25;0.68;;;;;;;;;;6259393;22;20023;-85
2023/12/21 09:22:51;;;;;;;;;;;;;;;;;;;;;
2023/12/21 09:26:00;;;;;;;4.43;1.13;;;;;;;;;;6299387;22;20025;-85
2023/12/21 09:29:09;;;;;;;5.38;1.40;;;;;;;;;;6233948;22;20395;-87
2023/12/21 09:32:13;;;;;;;;;;;;;;;;;;;;;
2023/12/21 09:35:21;;;;;;;;;;;;;;;;;;;;;
2023/12/21 09:38:17;;;;;;;5.53;1.17;;;;;;;;;;6201979;23;20346;-86
2023/12/21 09:44:58;;;;;;;5.28;1.00;;;;;;;;;;6165410;23;20087;-85
2023/12/21 09:59:26;;;;;;;6.63;1.33;;;;;;;;;;5964070;23;20035;-87
2023/12/21 10:06:21;;;;;;;4.95;1.00;;;;;;;;;;5971168;24;20119;-86
2023/12/21 10:09:36;;;;;;;3.92;1.27;;;;;;;;;;5942194;24;20028;-86
2023/12/21 10:13:03;;;;;;;10.00;1.40;;;;;;;;;;5886091;24;20158;-87
2023/12/21 10:16:07;;;;;;;10.73;1.77;;;;;;;;;;5982626;23;20058;-87
2023/12/21 10:19:13;;;;;;;7.13;1.25;;;;;;;;;;5971279;23;20023;-86
2023/12/21 10:22:19;;;;;;;7.78;1.88;;;;;;;;;;5988600;23;20025;-86
2023/12/21 10:24:52;;;;;;;8.23;1.60;;;;;;;;;;5971538;23;20444;-86
2023/12/21 10:35:04;;;;;;;7.45;1.70;;;;;;;;;;6088744;23;20052;-86
2023/12/21 10:44:43;;;;;;;8.00;1.50;;;;;;;;;;5982751;23;20050;-86
2023/12/21 10:48:02;;;;;;;;;;;;;;;;;;;;;
2023/12/21 10:53:55;;;;;;;7.20;1.73;;;;;;;;;;6223994;22;20035;-87
2023/12/21 11:07:30;;;;;;;12.20;2.10;;;;;;;;;;6077899;23;20028;-85
2023/12/21 11:14:12;;;;;;;12.02;2.88;;;;;;;;;;6026374;23;20097;-87
2023/12/21 11:21:02;;;;;;;6.30;1.88;;;;;;;;;;6020542;23;20085;-87
2023/12/21 11:31:15;;;;;;;6.28;1.83;;;;;;;;;;6012269;23;20027;-86
2023/12/21 11:34:21;;;;;;;13.73;1.63;;;;;;;;;;6030185;23;20023;-87
2023/12/21 11:41:26;;;;;;;;;;;;;;;;;;;;;
2023/12/21 11:44:36;;;;;;;16.55;1.90;;;;;;;;;;6033200;23;20113;-86
2023/12/21 11:50:58;;;;;;;11.30;1.70;;;;;;;;;;6111527;23;20029;-86
2023/12/21 11:54:22;;;;;;;;;;;;;;;;;;;;;
2023/12/21 11:57:31;;;;;;;;;;;;;;;;;;;;;
2023/12/21 12:00:31;;;;;;;15.65;2.78;;;;;;;;;;6222556;22;20016;-87
2023/12/21 12:03:18;;;;;;;;;;;;;;;;;;;;;
2023/12/21 12:06:21;;;;;;;;;;;;;;;;;;;;;
2023/12/21 12:09:20;;;;;;;14.77;2.90;;;;;;;;;;6078235;23;20253;-87
2023/12/21 12:16:03;;;;;;;13.43;2.03;;;;;;;;;;6024555;23;20078;-86
2023/12/21 12:18:49;;;;;;;;;;;;;;;;;;;;;
2023/12/21 12:22:01;;;;;;;11.20;2.28;;;;;;;;;;6027455;23;20852;-85
2023/12/21 12:25:18;;;;;;;14.90;2.35;;;;;;;;;;5998793;23;20067;-86
2023/12/21 12:28:11;;;;;;;10.77;1.60;;;;;;;;;;5990419;23;20449;-86
2023/12/21 12:31:06;;;;;;;8.80;1.60;;;;;;;;;;6008916;23;20049;-86
2023/12/21 12:33:53;;;;;;;;;;;;;;;;;;;;;
2023/12/21 12:43:40;;;;;;;10.52;2.55;;;;;;;;;;6203843;23;20081;-86
2023/12/21 12:47:12;;;;;;;10.48;2.03;;;;;;;;;;6189639;23;20605;-86
2023/12/21 12:50:30;;;;;;;;;;;;;;;;;;;;;
2023/12/21 12:53:43;;;;;;;12.75;2.97;;;;;;;;;;6140885;23;20672;-86
2023/12/21 12:57:01;;;;;;;17.00;2.72;;;;;;;;;;6170124;23;20127;-86
2023/12/21 13:03:02;;;;;;;13.40;1.90;;;;;;;;;;6135381;23;20044;-86
2023/12/21 13:06:04;;;;;;;8.77;3.17;;;;;;;;;;6168248;23;20016;-86
2023/12/21 13:15:45;;;;;;;13.90;2.80;;;;;;;;;;6074681;23;20056;-87
2023/12/21 13:21:21;;;;;;;10.65;2.25;;;;;;;;;;6026463;23;20019;-86
2023/12/21 13:24:09;;;;;;;13.47;2.87;;;;;;;;;;5977265;23;20035;-86
2023/12/21 13:33:31;;;;;;;;;;;;;;;;;;;;;
2023/12/21 13:36:23;;;;;;;;;;;;;;;;;;;;;
2023/12/21 13:46:32;;;;;;;;;;;;;;;;;;;;;
2023/12/21 13:53:41;;;;;;;;;;;;;;;;;;;;;
2023/12/21 14:04:13;;;;;;;18.73;2.60;;;;;;;;;;5828257;24;20117;-85
2023/12/21 14:07:26;;;;;;;9.90;1.77;;;;;;;;;;5882384;24;20061;-86
2023/12/21 14:18:02;;;;;;;15.25;2.55;;;;;;;;;;5842661;24;20030;-85
2023/12/21 14:21:09;;;;;;;;;;;;;;;;;;;;;
2023/12/21 14:24:32;;;;;;;4.25;0.93;;;;;;;;;;5902700;24;20065;-86
2023/12/21 14:39:21;;;;;;;;;;;;;;;;;;;;;
2023/12/21 14:49:44;;;;;;;;;;;;;;;;;;;;;
2023/12/21 15:10:48;;;;;;;9.95;1.98;;;;;;;;;;6042656;23;20085;-85
2023/12/21 15:27:58;;;;;;;16.20;2.38;;;;;;;;;;5977135;24;20169;-85
2023/12/21 15:31:05;;;;;;;;;;;;;;;;;;;;;
2023/12/21 15:40:55;;;;;;;14.00;2.60;;;;;;;;;;6030166;23;20627;-85
2023/12/21 15:44:17;;;;;;;;;;;;;;;;;;;;;
2023/12/21 15:47:47;;;;;;;;;;;;;;;;;;;;;
2023/12/21 15:50:46;;;;;;;11.07;1.98;;;;;;;;;;6031541;23;20071;-86
2023/12/21 16:13:00;;;;;;;;;;;;;;;;;;;;;
2023/12/21 16:27:09;;;;;;;;;;;;;;;;;;;;;
2023/12/21 16:30:41;;;;;;;13.80;2.70;;;;;;;;;;5859381;24;20498;-85
2023/12/21 16:49:35;;;;;;;;;;;;;;;;;;;;;
2023/12/21 16:56:29;;;;;;;;;;;;;;;;;;;;;
2023/12/21 17:10:53;;;;;;;;;;;;;;;;;;;;;
2023/12/21 17:17:28;;;;;;;25.55;3.97;;;;;;;;;;6137217;23;20181;-85
2023/12/21 17:21:07;;;;;;;;;;;;;;;;;;;;;
2023/12/21 17:46:01;;;;;;;;;;;;;;;;;;;;;
2023/12/21 17:52:53;;;;;;;21.42;4.53;;;;;;;;;;5719319;24;20107;-85
2023/12/21 18:12:43;;;;;;;19.38;2.88;;;;;;;;;;5964914;23;20433;-85
2023/12/21 18:16:03;;;;;;;;;;;;;;;;;;;;;
2023/12/21 23:26:45;;;;;;;8.93;1.65;;;;;;;;;;6123763;23;20394;-91
2023/12/21 23:29:50;;;;;;;;;;;;;;;;;;;;;
2023/12/21 23:32:41;;;;;;;8.57;2.60;;;;;;;;;;6189740;23;20091;-92
2023/12/21 23:35:31;;;;;;;8.00;1.73;;;;;;;;;;6214235;23;20338;-90
2023/12/21 23:38:10;;;;;;;11.88;2.05;;;;;;;;;;6149723;23;20020;-89
2023/12/21 23:41:03;;;;;;;11.52;2.22;;;;;;;;;;6178845;23;20055;-90
2023/12/21 23:43:59;;;;;;;9.88;1.75;;;;;;;;;;6169830;23;20051;-91
2023/12/21 23:46:35;;;;;;;11.27;2.45;;;;;;;;;;6198485;23;20456;-90
2023/12/21 23:53:19;;;;;;;5.85;2.15;;;;;;;;;;6147468;23;20020;-89
